createdAt,value
2017-10-29T00:00:23.591Z,93842.47
2017-10-29T00:02:51.960Z,93800.13
2017-10-29T00:05:20.303Z,93811.42
2017-10-29T00:07:48.682Z,93829.06
2017-10-29T00:10:17.032Z,93837.98
2017-10-29T00:12:45.378Z,93817.97
2017-10-29T00:15:13.754Z,93843.88
2017-10-29T00:17:42.095Z,93820.10
2017-10-29T00:20:10.472Z,93829.17
2017-10-29T00:22:38.815Z,93827.20
2017-10-29T00:25:07.191Z,93788.44
2017-10-29T00:27:35.564Z,93838.23
2017-10-29T00:30:03.938Z,93819.72
2017-10-29T00:32:32.311Z,93792.31
2017-10-29T00:35:00.655Z,93793.55
2017-10-29T00:37:29.019Z,93790.63
2017-10-29T00:39:57.367Z,93775.60
2017-10-29T00:42:25.725Z,93777.00
2017-10-29T00:44:54.064Z,93762.64
2017-10-29T00:47:22.433Z,93780.47
2017-10-29T00:49:50.785Z,93762.87
2017-10-29T00:52:19.142Z,93745.34
2017-10-29T00:54:47.492Z,93773.37
2017-10-29T00:57:15.875Z,93745.52
2017-10-29T00:59:44.214Z,93755.39
2017-10-29T01:02:12.587Z,93745.42
2017-10-29T01:04:40.954Z,93734.86
2017-10-29T01:07:09.337Z,93738.94
2017-10-29T01:09:37.681Z,93732.42
2017-10-29T01:12:06.023Z,93718.55
2017-10-29T01:14:34.379Z,93732.73
2017-10-29T01:17:02.719Z,93713.67
2017-10-29T01:19:31.091Z,93712.84
2017-10-29T01:21:59.463Z,93685.21
2017-10-29T01:24:27.845Z,93686.97
2017-10-29T01:26:56.210Z,93700.52
2017-10-29T01:29:24.559Z,93691.88
2017-10-29T01:31:52.907Z,93678.47
2017-10-29T01:34:21.282Z,93672.39
2017-10-29T01:36:49.771Z,93672.89
2017-10-29T01:39:18.115Z,93660.05
2017-10-29T01:41:46.459Z,93646.52
2017-10-29T01:44:14.800Z,93656.53
2017-10-29T01:46:43.171Z,93654.66
2017-10-29T01:49:11.512Z,93637.82
2017-10-29T01:51:39.890Z,93648.08
2017-10-29T01:54:08.240Z,93627.23
2017-10-29T01:56:36.614Z,93629.89
2017-10-29T01:59:04.984Z,93609.11
2017-10-29T02:01:33.367Z,93634.78
2017-10-29T02:04:01.707Z,93625.20
2017-10-29T02:06:30.056Z,93619.30
2017-10-29T02:08:58.413Z,93601.50
2017-10-29T02:11:26.769Z,93576.09
2017-10-29T02:13:55.139Z,93586.66
2017-10-29T02:16:23.485Z,93562.05
2017-10-29T02:18:51.855Z,93600.95
2017-10-29T02:21:20.225Z,93571.55
2017-10-29T02:23:48.573Z,93566.73
2017-10-29T02:26:16.917Z,93557.91
2017-10-29T02:28:45.290Z,93551.55
2017-10-29T02:31:13.655Z,93569.43
2017-10-29T02:33:41.999Z,93548.63
2017-10-29T02:36:10.374Z,93535.64
2017-10-29T02:38:38.748Z,93545.73
2017-10-29T02:41:07.121Z,93557.79
2017-10-29T02:43:35.477Z,93567.26
2017-10-29T02:46:03.852Z,93557.79
2017-10-29T02:48:32.206Z,93553.23
2017-10-29T02:51:00.546Z,93553.79
2017-10-29T02:53:28.933Z,93526.98
2017-10-29T02:55:57.275Z,93563.14
2017-10-29T02:58:25.644Z,93552.45
2017-10-29T03:00:54.021Z,93517.24
2017-10-29T03:03:22.434Z,93546.32
2017-10-29T03:05:50.779Z,93540.34
2017-10-29T03:08:19.120Z,93553.44
2017-10-29T03:10:47.466Z,93555.57
2017-10-29T03:13:15.810Z,93528.02
2017-10-29T03:15:44.183Z,93573.91
2017-10-29T03:18:12.536Z,93551.23
2017-10-29T03:20:40.876Z,93551.49
2017-10-29T03:23:09.246Z,93564.95
2017-10-29T03:25:37.614Z,93541.91
2017-10-29T03:28:05.955Z,93569.77
2017-10-29T03:30:34.302Z,93543.83
2017-10-29T03:33:02.657Z,93571.67
2017-10-29T03:35:31.041Z,93554.77
2017-10-29T03:37:59.391Z,93525.08
2017-10-29T03:40:27.733Z,93518.36
2017-10-29T03:42:56.098Z,93515.78
2017-10-29T03:45:24.442Z,93539.28
2017-10-29T03:47:52.828Z,93603.22
2017-10-29T03:50:21.172Z,93601.72
2017-10-29T03:52:49.512Z,93618.70
2017-10-29T03:55:17.856Z,93628.71
2017-10-29T03:57:46.191Z,93580.08
2017-10-29T04:00:14.564Z,93598.08
2017-10-29T04:02:42.896Z,93606.79
2017-10-29T04:05:11.262Z,93590.38
2017-10-29T04:07:39.609Z,93608.65
2017-10-29T04:10:07.975Z,93596.06
2017-10-29T04:12:36.315Z,93607.78
2017-10-29T04:15:04.678Z,93603.53
2017-10-29T04:17:33.024Z,93612.56
2017-10-29T04:20:01.399Z,93610.80
2017-10-29T04:22:29.742Z,93634.28
2017-10-29T04:24:58.100Z,93607.59
2017-10-29T04:27:26.451Z,93632.27
2017-10-29T04:29:54.803Z,93692.41
2017-10-29T04:32:23.147Z,93661.95
2017-10-29T04:34:51.535Z,93668.97
2017-10-29T04:37:19.872Z,93648.16
2017-10-29T04:39:48.248Z,93686.48
2017-10-29T04:42:16.587Z,93673.27
2017-10-29T04:44:44.967Z,93657.16
2017-10-29T04:47:13.358Z,93674.64
2017-10-29T04:49:41.723Z,93702.21
2017-10-29T04:52:10.069Z,93681.96
2017-10-29T04:54:38.405Z,93696.08
2017-10-29T04:57:06.747Z,93680.11
2017-10-29T04:59:35.122Z,93687.31
2017-10-29T05:02:03.477Z,93680.48
2017-10-29T05:04:31.952Z,93702.30
2017-10-29T05:07:00.292Z,93709.66
2017-10-29T05:09:28.648Z,93695.50
2017-10-29T05:11:56.982Z,93709.30
2017-10-29T05:14:25.326Z,93712.11
2017-10-29T05:16:53.704Z,93709.80
2017-10-29T05:19:22.049Z,93723.97
2017-10-29T05:21:50.392Z,93703.23
2017-10-29T05:24:18.735Z,93733.77
2017-10-29T05:26:47.100Z,93732.35
2017-10-29T05:29:15.474Z,93749.22
2017-10-29T05:31:43.858Z,93736.33
2017-10-29T05:34:12.246Z,93726.67
2017-10-29T05:36:40.587Z,93712.38
2017-10-29T05:39:08.922Z,93714.44
2017-10-29T05:41:37.299Z,93758.23
2017-10-29T05:44:05.636Z,93729.39
2017-10-29T05:46:33.982Z,93717.89
2017-10-29T05:49:02.331Z,93744.29
2017-10-29T05:51:30.711Z,93737.21
2017-10-29T05:53:59.081Z,93725.88
2017-10-29T05:56:27.474Z,93751.37
2017-10-29T05:58:55.833Z,93758.19
2017-10-29T06:01:24.188Z,93778.72
2017-10-29T06:03:52.531Z,93804.75
2017-10-29T06:06:20.911Z,93816.87
2017-10-29T06:08:49.258Z,93804.61
2017-10-29T06:11:17.630Z,93826.08
2017-10-29T06:13:46.017Z,93819.92
2017-10-29T06:16:14.384Z,93833.65
2017-10-29T06:18:42.773Z,93846.40
2017-10-29T06:21:11.131Z,93838.69
2017-10-29T06:23:39.487Z,93855.70
2017-10-29T06:26:07.861Z,93869.17
2017-10-29T06:28:36.236Z,93867.27
2017-10-29T06:31:04.636Z,93855.23
2017-10-29T06:33:33.927Z,93866.78
2017-10-29T06:36:02.293Z,93863.94
2017-10-29T06:38:30.670Z,93896.94
2017-10-29T06:40:59.016Z,93878.19
2017-10-29T06:43:27.359Z,93882.69
2017-10-29T06:45:55.709Z,93900.23
2017-10-29T06:48:24.087Z,93914.48
2017-10-29T06:50:52.428Z,93925.84
2017-10-29T06:53:20.802Z,93936.96
2017-10-29T06:55:49.177Z,93926.84
2017-10-29T06:58:17.527Z,93929.28
2017-10-29T07:00:45.862Z,93935.42
2017-10-29T07:03:14.222Z,93967.89
2017-10-29T07:05:42.575Z,93968.17
2017-10-29T07:08:10.956Z,93966.73
2017-10-29T07:10:39.326Z,93978.30
2017-10-29T07:13:07.711Z,93994.20
2017-10-29T07:15:36.060Z,93998.70
2017-10-29T07:18:04.401Z,94022.72
2017-10-29T07:20:32.735Z,94006.05
2017-10-29T07:23:01.098Z,94026.69
2017-10-29T07:25:29.453Z,94020.85
2017-10-29T07:27:57.787Z,94030.89
2017-10-29T07:30:26.148Z,94054.20
2017-10-29T07:32:54.492Z,94053.63
2017-10-29T07:35:22.851Z,94058.39
2017-10-29T07:37:51.190Z,94052.97
2017-10-29T07:40:19.539Z,94069.37
2017-10-29T07:42:47.873Z,94059.12
2017-10-29T07:45:16.225Z,94051.89
2017-10-29T07:47:44.630Z,94072.45
2017-10-29T07:50:12.976Z,94063.67
2017-10-29T07:52:41.349Z,94070.56
2017-10-29T07:55:09.716Z,94080.25
2017-10-29T07:57:38.047Z,94075.82
2017-10-29T08:00:06.406Z,94068.92
2017-10-29T08:02:34.733Z,94086.58
2017-10-29T08:05:03.109Z,94095.38
2017-10-29T08:07:31.479Z,94086.88
2017-10-29T08:09:59.814Z,94092.11
2017-10-29T08:12:28.159Z,94119.02
2017-10-29T08:14:56.497Z,94116.09
2017-10-29T08:17:24.858Z,94124.27
2017-10-29T08:19:53.198Z,94128.66
2017-10-29T08:22:21.547Z,94143.33
2017-10-29T08:24:49.904Z,94139.89
2017-10-29T08:27:18.270Z,94136.64
2017-10-29T08:29:46.647Z,94150.52
2017-10-29T08:32:14.998Z,94146.37
2017-10-29T08:34:43.354Z,94136.80
2017-10-29T08:37:11.704Z,94145.89
2017-10-29T08:39:40.072Z,94172.55
2017-10-29T08:42:08.413Z,94148.19
2017-10-29T08:44:36.745Z,94166.58
2017-10-29T08:47:05.132Z,94175.46
2017-10-29T08:49:33.507Z,94174.31
2017-10-29T08:52:01.883Z,94187.80
2017-10-29T08:54:30.252Z,94197.59
2017-10-29T08:56:58.603Z,94208.66
2017-10-29T08:59:26.955Z,94215.28
2017-10-29T09:01:55.301Z,94217.13
2017-10-29T09:04:23.651Z,94210.69
2017-10-29T09:06:52.014Z,94225.87
2017-10-29T09:09:20.351Z,94210.91
2017-10-29T09:11:48.692Z,94221.82
2017-10-29T09:14:17.028Z,94223.78
2017-10-29T09:16:45.367Z,94214.10
2017-10-29T09:19:13.728Z,94223.13
2017-10-29T09:21:42.120Z,94253.60
2017-10-29T09:24:10.490Z,94249.13
2017-10-29T09:26:38.910Z,94273.03
2017-10-29T09:29:07.270Z,94268.80
2017-10-29T09:31:35.621Z,94249.41
2017-10-29T09:34:03.975Z,94268.44
2017-10-29T09:36:32.310Z,94259.17
2017-10-29T09:39:00.703Z,94278.47
2017-10-29T09:41:29.030Z,94274.52
2017-10-29T09:43:57.495Z,94275.07
2017-10-29T09:46:25.853Z,94271.01
2017-10-29T09:48:54.187Z,94273.45
2017-10-29T09:51:22.532Z,94285.45
2017-10-29T09:53:50.862Z,94286.67
2017-10-29T09:56:19.231Z,94285.78
2017-10-29T09:58:47.619Z,94280.95
2017-10-29T10:01:15.962Z,94293.41
2017-10-29T10:03:44.317Z,94301.98
2017-10-29T10:06:12.664Z,94301.88
2017-10-29T10:08:41.038Z,94302.04
2017-10-29T10:11:09.357Z,94303.31
2017-10-29T10:13:37.743Z,94308.48
2017-10-29T10:16:06.083Z,94327.79
2017-10-29T10:18:34.466Z,94303.80
2017-10-29T10:21:02.810Z,94312.48
2017-10-29T10:23:31.174Z,94305.63
2017-10-29T10:25:59.516Z,94294.00
2017-10-29T10:28:27.887Z,94311.12
2017-10-29T10:30:56.239Z,94308.80
2017-10-29T10:33:24.634Z,94311.28
2017-10-29T10:35:52.984Z,94325.03
2017-10-29T10:38:21.336Z,94337.14
2017-10-29T10:40:49.703Z,94334.36
2017-10-29T10:43:18.086Z,94340.33
2017-10-29T10:45:46.436Z,94358.72
2017-10-29T10:48:14.798Z,94359.22
2017-10-29T10:50:43.149Z,94371.78
2017-10-29T10:53:11.532Z,94377.36
2017-10-29T10:55:39.898Z,94363.45
2017-10-29T10:58:08.251Z,94357.44
2017-10-29T11:00:36.592Z,94360.92
2017-10-29T11:03:04.959Z,94356.45
2017-10-29T11:05:33.287Z,94368.70
2017-10-29T11:08:01.654Z,94379.47
2017-10-29T11:10:30.002Z,94361.70
2017-10-29T11:12:58.366Z,94371.53
2017-10-29T11:15:27.716Z,94365.59
2017-10-29T11:17:56.092Z,94374.34
2017-10-29T11:20:24.431Z,94368.39
2017-10-29T11:22:52.806Z,94374.27
2017-10-29T11:25:21.140Z,94367.43
2017-10-29T11:27:49.487Z,94360.28
2017-10-29T11:30:17.828Z,94373.09
2017-10-29T11:32:46.170Z,94373.02
2017-10-29T11:35:14.531Z,94372.45
2017-10-29T11:37:42.868Z,94375.69
2017-10-29T11:40:11.237Z,94358.15
2017-10-29T11:42:39.565Z,94379.62
2017-10-29T11:45:07.927Z,94368.82
2017-10-29T11:47:36.258Z,94401.34
2017-10-29T11:50:04.588Z,94411.49
2017-10-29T11:52:32.944Z,94418.96
2017-10-29T11:55:01.287Z,94435.63
2017-10-29T11:57:29.641Z,94437.42
2017-10-29T11:59:57.978Z,94434.46
2017-10-29T12:02:26.343Z,94426.13
2017-10-29T12:04:54.670Z,94433.21
2017-10-29T12:07:23.008Z,94422.06
2017-10-29T12:09:51.391Z,94420.98
2017-10-29T12:12:19.731Z,94417.09
2017-10-29T12:14:48.076Z,94425.15
2017-10-29T12:17:16.433Z,94429.98
2017-10-29T12:19:45.221Z,94427.89
2017-10-29T12:22:14.591Z,94436.05
2017-10-29T12:24:44.227Z,94424.80
2017-10-29T12:27:13.366Z,94434.00
2017-10-29T12:29:42.087Z,94433.62
2017-10-29T12:32:12.847Z,94439.19
2017-10-29T12:34:42.584Z,94440.39
2017-10-29T12:37:11.204Z,94453.44
2017-10-29T12:39:39.877Z,94449.42
2017-10-29T12:42:08.471Z,94456.64
2017-10-29T12:44:37.172Z,94461.53
2017-10-29T12:47:05.984Z,94465.36
2017-10-29T12:49:34.521Z,94467.56
2017-10-29T12:52:03.219Z,94482.51
2017-10-29T12:54:33.505Z,94518.45
2017-10-29T12:57:03.098Z,94503.19
2017-10-29T12:59:31.686Z,94519.82
2017-10-29T13:02:00.370Z,94520.53
2017-10-29T13:04:29.484Z,94538.67
2017-10-29T13:06:58.531Z,94522.36
2017-10-29T13:09:27.294Z,94533.94
2017-10-29T13:11:55.950Z,94533.80
2017-10-29T13:14:24.692Z,94546.60
2017-10-29T13:16:53.225Z,94559.70
2017-10-29T13:19:21.941Z,94573.11
2017-10-29T13:21:50.668Z,94556.31
2017-10-29T13:24:19.447Z,94551.69
2017-10-29T13:26:48.102Z,94559.65
2017-10-29T13:29:17.092Z,94569.05
2017-10-29T13:31:46.115Z,94564.63
2017-10-29T13:34:15.681Z,94561.98
2017-10-29T13:36:44.352Z,94565.71
2017-10-29T13:39:12.811Z,94570.22
2017-10-29T13:41:41.175Z,94553.56
2017-10-29T13:44:09.577Z,94563.14
2017-10-29T13:46:37.964Z,94550.97
2017-10-29T13:49:06.313Z,94561.87
2017-10-29T13:51:34.674Z,94568.42
2017-10-29T13:54:03.026Z,94567.50
2017-10-29T13:56:31.405Z,94580.66
2017-10-29T13:58:59.802Z,94583.85
2017-10-29T14:01:28.117Z,94589.34
2017-10-29T14:03:56.472Z,94580.06
2017-10-29T14:06:24.993Z,94603.05
2017-10-29T14:08:53.362Z,94582.14
2017-10-29T14:11:21.730Z,94580.13
2017-10-29T14:13:50.100Z,94593.97
2017-10-29T14:16:18.460Z,94583.92
2017-10-29T14:18:46.801Z,94584.19
2017-10-29T14:21:15.142Z,94568.16
2017-10-29T14:23:43.477Z,94577.61
2017-10-29T14:26:11.814Z,94593.91
2017-10-29T14:28:40.172Z,94607.37
2017-10-29T14:31:08.508Z,94608.93
2017-10-29T14:33:36.886Z,94607.19
2017-10-29T14:36:05.251Z,94605.06
2017-10-29T14:38:33.590Z,94613.19
2017-10-29T14:41:01.924Z,94632.77
2017-10-29T14:43:30.286Z,94632.86
2017-10-29T14:45:58.615Z,94642.79
2017-10-29T14:48:27.315Z,94651.67
2017-10-29T14:50:56.062Z,94654.84
2017-10-29T14:53:24.960Z,94661.03
2017-10-29T14:55:53.831Z,94661.51
2017-10-29T14:58:22.545Z,94669.34
2017-10-29T15:00:51.106Z,94664.59
2017-10-29T15:03:19.799Z,94695.84
2017-10-29T15:05:48.549Z,94682.41
2017-10-29T15:08:17.249Z,94693.00
2017-10-29T15:10:45.732Z,94695.70
2017-10-29T15:13:14.289Z,94700.48
2017-10-29T15:15:42.653Z,94705.03
2017-10-29T15:18:11.086Z,94717.70
2017-10-29T15:20:40.069Z,94707.01
2017-10-29T15:23:08.442Z,94706.27
2017-10-29T15:25:36.814Z,94708.10
2017-10-29T15:28:05.160Z,94715.92
2017-10-29T15:30:33.506Z,94716.28
2017-10-29T15:33:01.886Z,94721.29
2017-10-29T15:35:30.271Z,94722.33
2017-10-29T15:37:58.607Z,94723.51
2017-10-29T15:40:27.404Z,94729.07
2017-10-29T15:42:56.131Z,94725.14
2017-10-29T15:48:23.130Z,94738.36
2017-10-29T15:50:51.487Z,94739.45
2017-10-29T15:53:19.843Z,94751.78
2017-10-29T15:55:48.237Z,94750.82
2017-10-29T15:58:16.816Z,94750.04
2017-10-29T16:00:45.550Z,94752.80
2017-10-29T16:03:13.982Z,94754.75
2017-10-29T16:05:42.491Z,94764.23
2017-10-29T16:08:11.151Z,94767.73
2017-10-29T16:10:39.608Z,94769.14
2017-10-29T16:13:07.942Z,94773.02
2017-10-29T16:15:36.339Z,94781.43
2017-10-29T16:20:39.211Z,94793.84
2017-10-29T16:23:07.572Z,94802.33
2017-10-29T16:25:35.940Z,94801.66
2017-10-29T16:28:04.287Z,94814.78
2017-10-29T16:30:32.694Z,94811.36
2017-10-29T16:33:01.084Z,94819.06
2017-10-29T16:35:29.506Z,94827.03
2017-10-29T16:37:57.843Z,94830.50
2017-10-29T16:40:26.247Z,94828.32
2017-10-29T16:42:54.611Z,94829.59
2017-10-29T16:45:22.977Z,94836.84
2017-10-29T16:47:51.307Z,94834.81
2017-10-29T16:50:19.683Z,94849.84
2017-10-29T16:52:48.096Z,94859.19
2017-10-29T16:55:16.457Z,94857.70
2017-10-29T16:57:44.803Z,94856.56
2017-10-29T17:00:13.179Z,94856.11
2017-10-29T17:02:41.682Z,94867.70
2017-10-29T17:05:10.027Z,94857.78
2017-10-29T17:07:38.359Z,94865.45
2017-10-29T17:10:06.694Z,94870.44
2017-10-29T17:12:35.036Z,94871.92
2017-10-29T17:15:03.407Z,94865.55
2017-10-29T17:17:31.751Z,94867.97
2017-10-29T17:20:00.098Z,94876.84
2017-10-29T17:22:28.448Z,94876.81
2017-10-29T17:24:56.818Z,94874.88
2017-10-29T17:27:25.180Z,94891.42
2017-10-29T17:29:53.582Z,94892.97
2017-10-29T17:32:21.956Z,94898.27
2017-10-29T17:34:50.322Z,94916.34
2017-10-29T17:37:18.707Z,94917.32
2017-10-29T17:39:47.071Z,94922.10
2017-10-29T17:42:15.448Z,94933.27
2017-10-29T17:44:43.821Z,94938.53
2017-10-29T17:47:12.161Z,94919.58
2017-10-29T17:49:40.533Z,94921.62
2017-10-29T17:52:08.911Z,94921.22
2017-10-29T17:54:37.285Z,94931.05
2017-10-29T17:57:05.668Z,94938.47
2017-10-29T17:59:34.007Z,94941.52
2017-10-29T18:02:02.535Z,94949.81
2017-10-29T18:04:30.873Z,94951.39
2017-10-29T18:06:59.210Z,94959.31
2017-10-29T18:09:27.547Z,94954.14
2017-10-29T18:11:55.915Z,94963.13
2017-10-29T18:14:24.278Z,94953.81
2017-10-29T18:16:52.666Z,94966.59
2017-10-29T18:19:21.020Z,94971.19
2017-10-29T18:21:49.407Z,94979.66
2017-10-29T18:24:17.784Z,94980.58
2017-10-29T18:26:46.140Z,94977.56
2017-10-29T18:29:15.499Z,94973.25
2017-10-29T18:31:43.842Z,94990.06
2017-10-29T18:34:12.229Z,94979.26
2017-10-29T18:36:40.586Z,94993.75
2017-10-29T18:39:08.941Z,94995.46
2017-10-29T18:41:37.304Z,94990.08
2017-10-29T18:44:05.688Z,95002.22
2017-10-29T18:46:34.059Z,94996.05
2017-10-29T18:49:02.399Z,95007.19
2017-10-29T18:51:30.787Z,95009.64
2017-10-29T18:53:59.122Z,95026.05
2017-10-29T18:56:27.468Z,95025.44
2017-10-29T18:58:55.838Z,95022.09
2017-10-29T19:01:24.257Z,95028.34
2017-10-29T19:03:52.657Z,95015.25
2017-10-29T19:06:21.000Z,95020.50
2017-10-29T19:08:49.381Z,95014.55
2017-10-29T19:11:17.733Z,95020.58
2017-10-29T19:13:46.086Z,95018.52
2017-10-29T19:16:14.437Z,95015.78
2017-10-29T19:18:42.828Z,95017.96
2017-10-29T19:21:11.165Z,95010.95
2017-10-29T19:23:39.507Z,95018.85
2017-10-29T19:26:07.895Z,95017.88
2017-10-29T19:28:36.240Z,95022.87
2017-10-29T19:31:04.583Z,95017.79
2017-10-29T19:33:32.926Z,95012.04
2017-10-29T19:36:01.292Z,95008.95
2017-10-29T19:38:29.662Z,95018.88
2017-10-29T19:40:58.935Z,95015.73
2017-10-29T19:43:27.278Z,95024.24
2017-10-29T19:45:55.646Z,95019.77
2017-10-29T19:48:24.034Z,95022.53
2017-10-29T19:50:52.387Z,95037.28
2017-10-29T19:53:20.747Z,95036.72
2017-10-29T19:55:49.136Z,95039.73
2017-10-29T19:58:17.477Z,95037.81
2017-10-29T20:00:45.854Z,95043.32
2017-10-29T20:03:14.207Z,95036.16
2017-10-29T20:05:42.554Z,95036.48
2017-10-29T20:08:10.892Z,95049.02
2017-10-29T20:10:39.236Z,95045.38
2017-10-29T20:13:08.527Z,95047.19
2017-10-29T20:15:38.255Z,95053.08
2017-10-29T20:18:06.824Z,95050.20
2017-10-29T20:20:35.216Z,95041.16
2017-10-29T20:23:03.560Z,95047.09
2017-10-29T20:25:31.987Z,95048.69
2017-10-29T20:28:00.401Z,95062.48
2017-10-29T20:30:29.436Z,95070.72
2017-10-29T20:32:57.799Z,95076.99
2017-10-29T20:35:27.368Z,95065.84
2017-10-29T20:37:55.813Z,95054.33
2017-10-29T20:40:25.467Z,95061.09
2017-10-29T20:42:59.897Z,95069.16
2017-10-29T20:45:28.258Z,95065.20
2017-10-29T20:50:57.206Z,95065.75
2017-10-29T20:53:26.000Z,95068.14
2017-10-29T20:55:55.042Z,95074.89
2017-10-29T20:58:23.439Z,95078.77
2017-10-29T21:00:51.925Z,95076.54
2017-10-29T21:03:20.283Z,95065.98
2017-10-29T21:05:48.627Z,95071.83
2017-10-29T21:08:17.944Z,95075.81
2017-10-29T21:10:47.099Z,95081.94
2017-10-29T21:17:04.128Z,95081.52
2017-10-29T21:19:32.728Z,95091.56
2017-10-29T21:22:01.464Z,95088.09
2017-10-29T21:24:29.826Z,95091.55
2017-10-29T21:26:58.159Z,95088.62
2017-10-29T21:29:26.562Z,95082.97
2017-10-29T21:31:54.902Z,95101.20
2017-10-29T21:34:23.279Z,95097.42
2017-10-29T21:36:53.589Z,95097.48
2017-10-29T21:39:21.947Z,95107.06
2017-10-29T21:41:50.319Z,95104.55
2017-10-29T21:44:18.700Z,95110.67
2017-10-29T21:46:47.057Z,95102.08
2017-10-29T21:49:15.413Z,95103.13
2017-10-29T21:51:43.784Z,95110.13
2017-10-29T21:54:12.143Z,95109.66
2017-10-29T21:56:40.523Z,95106.99
2017-10-29T21:59:08.865Z,95111.73
2017-10-29T22:01:37.220Z,95115.66
2017-10-29T22:04:05.651Z,95112.98
2017-10-29T22:06:33.987Z,95119.38
2017-10-29T22:09:02.372Z,95108.57
2017-10-29T22:11:30.728Z,95117.63
2017-10-29T22:13:59.077Z,95113.35
2017-10-29T22:16:27.415Z,95100.58
2017-10-29T22:18:55.791Z,95113.48
2017-10-29T22:21:24.135Z,95107.33
2017-10-29T22:23:53.318Z,95113.78
2017-10-29T22:26:21.687Z,95116.84
2017-10-29T22:28:50.031Z,95124.31
2017-10-29T22:31:18.386Z,95117.73
2017-10-29T22:33:46.723Z,95124.80
2017-10-29T22:36:15.067Z,95124.23
2017-10-29T22:38:43.436Z,95122.86
2017-10-29T22:41:11.804Z,95126.45
2017-10-29T22:43:40.133Z,95119.11
2017-10-29T22:46:08.478Z,95127.91
2017-10-29T22:48:36.825Z,95125.85
2017-10-29T22:51:05.166Z,95121.59
2017-10-29T22:53:33.531Z,95125.67
2017-10-29T22:56:01.895Z,95120.09
2017-10-29T22:58:30.231Z,95130.19
2017-10-29T23:00:58.593Z,95123.39
2017-10-29T23:03:26.940Z,95128.98
2017-10-29T23:05:55.897Z,95127.12
2017-10-29T23:08:31.086Z,95124.00
2017-10-29T23:10:59.457Z,95133.23
2017-10-29T23:13:27.799Z,95134.14
2017-10-29T23:15:56.172Z,95135.17
2017-10-29T23:18:24.512Z,95125.27
2017-10-29T23:20:52.865Z,95144.84
2017-10-29T23:23:21.224Z,95143.54
2017-10-29T23:25:49.658Z,95146.04
2017-10-29T23:28:18.031Z,95144.16
2017-10-29T23:30:46.362Z,95156.84
2017-10-29T23:33:14.695Z,95142.02
2017-10-29T23:35:43.036Z,95150.53
2017-10-29T23:38:11.387Z,95153.79
2017-10-29T23:40:39.729Z,95149.80
2017-10-29T23:43:08.096Z,95150.69
2017-10-29T23:45:36.462Z,95151.66
2017-10-29T23:48:04.798Z,95149.04
2017-10-29T23:50:33.167Z,95159.00
2017-10-29T23:53:01.512Z,95160.47
2017-10-29T23:55:29.878Z,95167.70
2017-10-29T23:57:58.256Z,95165.23
